sensor_id;sensor_type;location;lat;lon;timestamp;P1;durP1;ratioP1;P2;durP2;ratioP2
71046;SDS011;58703;48.978;8.982;2023-12-29T00:01:58;1.63;;;1.52;;
71046;SDS011;58703;48.978;8.982;2023-12-29T00:04:25;2.00;;;1.48;;
71046;SDS011;58703;48.978;8.982;2023-12-29T00:06:53;1.73;;;1.40;;
71046;SDS011;58703;48.978;8.982;2023-12-29T00:09:18;4.63;;;1.50;;
71046;SDS011;58703;48.978;8.982;2023-12-29T00:11:49;1.52;;;1.20;;
71046;SDS011;58703;48.978;8.982;2023-12-29T00:14:15;1.45;;;1.20;;
71046;SDS011;58703;48.978;8.982;2023-12-29T00:16:40;1.63;;;1.20;;
71046;SDS011;58703;48.978;8.982;2023-12-29T00:19:06;1.88;;;1.50;;
71046;SDS011;58703;48.978;8.982;2023-12-29T00:21:32;1.70;;;1.30;;
71046;SDS011;58703;48.978;8.982;2023-12-29T00:23:57;3.83;;;1.45;;
71046;SDS011;58703;48.978;8.982;2023-12-29T00:26:23;3.50;;;1.90;;
71046;SDS011;58703;48.978;8.982;2023-12-29T00:28:48;1.87;;;1.50;;
71046;SDS011;58703;48.978;8.982;2023-12-29T00:31:14;2.45;;;1.67;;
71046;SDS011;58703;48.978;8.982;2023-12-29T00:33:43;1.50;;;1.40;;
71046;SDS011;58703;48.978;8.982;2023-12-29T00:36:14;2.35;;;1.70;;
71046;SDS011;58703;48.978;8.982;2023-12-29T00:38:41;6.13;;;2.05;;
71046;SDS011;58703;48.978;8.982;2023-12-29T00:41:06;1.60;;;1.50;;
71046;SDS011;58703;48.978;8.982;2023-12-29T00:43:32;2.17;;;1.77;;
71046;SDS011;58703;48.978;8.982;2023-12-29T00:45:57;3.25;;;2.28;;
71046;SDS011;58703;48.978;8.982;2023-12-29T00:48:23;4.27;;;2.37;;
71046;SDS011;58703;48.978;8.982;2023-12-29T00:50:48;4.90;;;2.95;;
71046;SDS011;58703;48.978;8.982;2023-12-29T00:53:14;2.78;;;1.75;;
71046;SDS011;58703;48.978;8.982;2023-12-29T00:55:39;4.87;;;4.27;;
71046;SDS011;58703;48.978;8.982;2023-12-29T00:58:05;3.25;;;2.70;;
71046;SDS011;58703;48.978;8.982;2023-12-29T01:00:31;3.07;;;2.60;;
71046;SDS011;58703;48.978;8.982;2023-12-29T01:02:56;2.10;;;1.87;;
71046;SDS011;58703;48.978;8.982;2023-12-29T01:05:22;5.50;;;2.78;;
71046;SDS011;58703;48.978;8.982;2023-12-29T01:07:48;3.97;;;2.63;;
71046;SDS011;58703;48.978;8.982;2023-12-29T01:10:13;6.18;;;2.60;;
71046;SDS011;58703;48.978;8.982;2023-12-29T01:12:39;4.47;;;2.63;;
71046;SDS011;58703;48.978;8.982;2023-12-29T01:15:05;3.80;;;2.57;;
71046;SDS011;58703;48.978;8.982;2023-12-29T01:17:30;3.80;;;3.20;;
71046;SDS011;58703;48.978;8.982;2023-12-29T01:19:56;3.70;;;2.53;;
71046;SDS011;58703;48.978;8.982;2023-12-29T01:22:21;3.22;;;2.60;;
71046;SDS011;58703;48.978;8.982;2023-12-29T01:24:47;3.50;;;2.63;;
71046;SDS011;58703;48.978;8.982;2023-12-29T01:27:13;4.43;;;3.07;;
71046;SDS011;58703;48.978;8.982;2023-12-29T01:29:38;4.78;;;2.95;;
71046;SDS011;58703;48.978;8.982;2023-12-29T01:32:04;3.20;;;2.50;;
71046;SDS011;58703;48.978;8.982;2023-12-29T01:34:33;4.20;;;3.08;;
71046;SDS011;58703;48.978;8.982;2023-12-29T01:36:59;3.75;;;3.25;;
71046;SDS011;58703;48.978;8.982;2023-12-29T01:39:25;3.47;;;3.17;;
71046;SDS011;58703;48.978;8.982;2023-12-29T01:41:50;3.53;;;2.88;;
71046;SDS011;58703;48.978;8.982;2023-12-29T01:46:46;3.28;;;2.60;;
71046;SDS011;58703;48.978;8.982;2023-12-29T01:49:16;3.30;;;2.65;;
71046;SDS011;58703;48.978;8.982;2023-12-29T01:51:46;5.35;;;2.92;;
71046;SDS011;58703;48.978;8.982;2023-12-29T01:54:20;3.97;;;2.97;;
71046;SDS011;58703;48.978;8.982;2023-12-29T01:56:46;7.00;;;3.15;;
71046;SDS011;58703;48.978;8.982;2023-12-29T01:59:17;18.30;;;16.52;;
71046;SDS011;58703;48.978;8.982;2023-12-29T02:01:44;5.28;;;4.10;;
71046;SDS011;58703;48.978;8.982;2023-12-29T02:04:11;4.10;;;3.00;;
71046;SDS011;58703;48.978;8.982;2023-12-29T02:06:37;3.40;;;3.00;;
71046;SDS011;58703;48.978;8.982;2023-12-29T02:09:04;3.33;;;2.92;;
71046;SDS011;58703;48.978;8.982;2023-12-29T02:11:30;4.43;;;2.70;;
71046;SDS011;58703;48.978;8.982;2023-12-29T02:13:56;3.00;;;2.70;;
71046;SDS011;58703;48.978;8.982;2023-12-29T02:16:28;5.03;;;2.92;;
71046;SDS011;58703;48.978;8.982;2023-12-29T02:19:02;6.30;;;3.13;;
71046;SDS011;58703;48.978;8.982;2023-12-29T02:21:33;4.80;;;4.28;;
71046;SDS011;58703;48.978;8.982;2023-12-29T02:23:58;7.00;;;3.47;;
71046;SDS011;58703;48.978;8.982;2023-12-29T02:26:24;3.63;;;2.87;;
71046;SDS011;58703;48.978;8.982;2023-12-29T02:28:56;4.32;;;2.50;;
71046;SDS011;58703;48.978;8.982;2023-12-29T02:31:27;4.43;;;2.85;;
71046;SDS011;58703;48.978;8.982;2023-12-29T02:33:55;4.03;;;2.40;;
71046;SDS011;58703;48.978;8.982;2023-12-29T02:36:22;4.15;;;2.60;;
71046;SDS011;58703;48.978;8.982;2023-12-29T02:38:48;2.47;;;2.23;;
71046;SDS011;58703;48.978;8.982;2023-12-29T02:41:14;3.15;;;2.72;;
71046;SDS011;58703;48.978;8.982;2023-12-29T02:43:40;3.50;;;2.50;;
71046;SDS011;58703;48.978;8.982;2023-12-29T02:46:06;2.40;;;2.20;;
71046;SDS011;58703;48.978;8.982;2023-12-29T02:48:31;3.13;;;2.60;;
71046;SDS011;58703;48.978;8.982;2023-12-29T02:50:57;2.92;;;2.30;;
71046;SDS011;58703;48.978;8.982;2023-12-29T02:53:22;2.53;;;2.27;;
71046;SDS011;58703;48.978;8.982;2023-12-29T02:55:48;4.23;;;2.93;;
71046;SDS011;58703;48.978;8.982;2023-12-29T02:58:13;2.58;;;2.05;;
71046;SDS011;58703;48.978;8.982;2023-12-29T03:00:39;5.20;;;2.70;;
71046;SDS011;58703;48.978;8.982;2023-12-29T03:03:04;3.10;;;2.40;;
71046;SDS011;58703;48.978;8.982;2023-12-29T03:05:30;2.80;;;2.35;;
71046;SDS011;58703;48.978;8.982;2023-12-29T03:07:56;3.23;;;2.60;;
71046;SDS011;58703;48.978;8.982;2023-12-29T03:10:22;3.58;;;2.42;;
71046;SDS011;58703;48.978;8.982;2023-12-29T03:12:48;3.10;;;2.80;;
71046;SDS011;58703;48.978;8.982;2023-12-29T03:15:14;3.03;;;2.50;;
71046;SDS011;58703;48.978;8.982;2023-12-29T03:17:39;5.00;;;2.65;;
71046;SDS011;58703;48.978;8.982;2023-12-29T03:20:05;2.57;;;2.33;;
71046;SDS011;58703;48.978;8.982;2023-12-29T03:22:32;5.47;;;2.15;;
71046;SDS011;58703;48.978;8.982;2023-12-29T03:24:58;3.40;;;2.90;;
71046;SDS011;58703;48.978;8.982;2023-12-29T03:27:24;3.80;;;2.33;;
71046;SDS011;58703;48.978;8.982;2023-12-29T03:29:49;5.70;;;3.20;;
71046;SDS011;58703;48.978;8.982;2023-12-29T03:32:15;3.97;;;3.13;;
71046;SDS011;58703;48.978;8.982;2023-12-29T03:34:41;3.33;;;2.60;;
71046;SDS011;58703;48.978;8.982;2023-12-29T03:37:06;3.53;;;2.30;;
71046;SDS011;58703;48.978;8.982;2023-12-29T03:39:32;3.67;;;2.83;;
71046;SDS011;58703;48.978;8.982;2023-12-29T03:42:00;5.40;;;3.17;;
71046;SDS011;58703;48.978;8.982;2023-12-29T03:44:26;3.97;;;2.70;;
71046;SDS011;58703;48.978;8.982;2023-12-29T03:46:52;3.13;;;2.47;;
71046;SDS011;58703;48.978;8.982;2023-12-29T03:49:19;4.35;;;2.40;;
71046;SDS011;58703;48.978;8.982;2023-12-29T03:51:44;4.10;;;2.70;;
71046;SDS011;58703;48.978;8.982;2023-12-29T03:54:11;3.67;;;2.47;;
71046;SDS011;58703;48.978;8.982;2023-12-29T03:56:37;3.17;;;2.72;;
71046;SDS011;58703;48.978;8.982;2023-12-29T03:59:02;2.97;;;2.33;;
71046;SDS011;58703;48.978;8.982;2023-12-29T04:01:28;3.03;;;2.50;;
71046;SDS011;58703;48.978;8.982;2023-12-29T04:03:54;4.70;;;2.83;;
71046;SDS011;58703;48.978;8.982;2023-12-29T04:06:19;3.17;;;2.78;;
71046;SDS011;58703;48.978;8.982;2023-12-29T04:08:45;3.33;;;2.60;;
71046;SDS011;58703;48.978;8.982;2023-12-29T04:11:10;2.70;;;2.40;;
71046;SDS011;58703;48.978;8.982;2023-12-29T04:13:37;2.00;;;1.65;;
71046;SDS011;58703;48.978;8.982;2023-12-29T04:16:02;4.45;;;2.53;;
71046;SDS011;58703;48.978;8.982;2023-12-29T04:18:28;3.03;;;2.73;;
71046;SDS011;58703;48.978;8.982;2023-12-29T04:20:54;3.58;;;3.22;;
71046;SDS011;58703;48.978;8.982;2023-12-29T04:23:20;3.77;;;3.20;;
71046;SDS011;58703;48.978;8.982;2023-12-29T04:25:45;4.65;;;3.10;;
71046;SDS011;58703;48.978;8.982;2023-12-29T04:28:11;3.70;;;3.17;;
71046;SDS011;58703;48.978;8.982;2023-12-29T04:30:36;3.72;;;3.00;;
71046;SDS011;58703;48.978;8.982;2023-12-29T04:33:02;3.83;;;3.20;;
71046;SDS011;58703;48.978;8.982;2023-12-29T04:35:28;4.57;;;3.22;;
71046;SDS011;58703;48.978;8.982;2023-12-29T04:37:53;5.40;;;3.50;;
71046;SDS011;58703;48.978;8.982;2023-12-29T04:40:19;6.07;;;3.63;;
71046;SDS011;58703;48.978;8.982;2023-12-29T04:42:44;4.55;;;3.53;;
71046;SDS011;58703;48.978;8.982;2023-12-29T04:45:10;5.83;;;4.30;;
71046;SDS011;58703;48.978;8.982;2023-12-29T04:47:36;5.88;;;3.47;;
71046;SDS011;58703;48.978;8.982;2023-12-29T04:50:02;6.25;;;4.55;;
71046;SDS011;58703;48.978;8.982;2023-12-29T04:52:28;4.47;;;3.30;;
71046;SDS011;58703;48.978;8.982;2023-12-29T04:54:54;12.85;;;6.07;;
71046;SDS011;58703;48.978;8.982;2023-12-29T04:57:19;9.63;;;3.90;;
71046;SDS011;58703;48.978;8.982;2023-12-29T04:59:45;8.27;;;5.20;;
71046;SDS011;58703;48.978;8.982;2023-12-29T05:02:10;4.25;;;3.17;;
71046;SDS011;58703;48.978;8.982;2023-12-29T05:04:36;4.73;;;3.30;;
71046;SDS011;58703;48.978;8.982;2023-12-29T05:07:04;3.70;;;3.05;;
71046;SDS011;58703;48.978;8.982;2023-12-29T05:09:30;11.27;;;6.93;;
71046;SDS011;58703;48.978;8.982;2023-12-29T05:11:56;8.63;;;5.23;;
71046;SDS011;58703;48.978;8.982;2023-12-29T05:14:21;6.07;;;4.20;;
71046;SDS011;58703;48.978;8.982;2023-12-29T05:16:47;6.23;;;3.53;;
71046;SDS011;58703;48.978;8.982;2023-12-29T05:19:12;5.07;;;3.57;;
71046;SDS011;58703;48.978;8.982;2023-12-29T05:21:38;4.57;;;3.73;;
71046;SDS011;58703;48.978;8.982;2023-12-29T05:24:04;5.47;;;3.70;;
71046;SDS011;58703;48.978;8.982;2023-12-29T05:26:31;5.65;;;4.05;;
71046;SDS011;58703;48.978;8.982;2023-12-29T05:28:57;6.93;;;3.92;;
71046;SDS011;58703;48.978;8.982;2023-12-29T05:31:22;6.10;;;4.22;;
71046;SDS011;58703;48.978;8.982;2023-12-29T05:33:48;4.93;;;3.47;;
71046;SDS011;58703;48.978;8.982;2023-12-29T05:36:13;6.53;;;4.30;;
71046;SDS011;58703;48.978;8.982;2023-12-29T05:38:39;5.57;;;3.80;;
71046;SDS011;58703;48.978;8.982;2023-12-29T05:41:06;5.90;;;4.70;;
71046;SDS011;58703;48.978;8.982;2023-12-29T05:43:32;7.10;;;4.90;;
71046;SDS011;58703;48.978;8.982;2023-12-29T05:45:59;6.28;;;5.00;;
71046;SDS011;58703;48.978;8.982;2023-12-29T05:48:25;5.97;;;4.30;;
71046;SDS011;58703;48.978;8.982;2023-12-29T05:50:51;9.00;;;5.57;;
71046;SDS011;58703;48.978;8.982;2023-12-29T05:53:17;8.30;;;5.00;;
71046;SDS011;58703;48.978;8.982;2023-12-29T05:55:43;5.03;;;4.20;;
71046;SDS011;58703;48.978;8.982;2023-12-29T05:58:09;6.28;;;4.50;;
71046;SDS011;58703;48.978;8.982;2023-12-29T06:00:36;6.57;;;4.03;;
71046;SDS011;58703;48.978;8.982;2023-12-29T06:03:02;5.20;;;4.70;;
71046;SDS011;58703;48.978;8.982;2023-12-29T06:05:31;6.00;;;4.57;;
71046;SDS011;58703;48.978;8.982;2023-12-29T06:07:57;5.88;;;4.20;;
71046;SDS011;58703;48.978;8.982;2023-12-29T06:10:23;4.80;;;3.80;;
71046;SDS011;58703;48.978;8.982;2023-12-29T06:12:49;4.28;;;3.42;;
71046;SDS011;58703;48.978;8.982;2023-12-29T06:15:15;4.20;;;3.80;;
71046;SDS011;58703;48.978;8.982;2023-12-29T06:17:42;4.32;;;3.28;;
71046;SDS011;58703;48.978;8.982;2023-12-29T06:20:08;4.57;;;3.47;;
71046;SDS011;58703;48.978;8.982;2023-12-29T06:22:41;7.00;;;4.07;;
71046;SDS011;58703;48.978;8.982;2023-12-29T06:25:10;4.75;;;3.45;;
71046;SDS011;58703;48.978;8.982;2023-12-29T06:27:36;4.97;;;3.95;;
71046;SDS011;58703;48.978;8.982;2023-12-29T06:30:08;4.70;;;3.65;;
71046;SDS011;58703;48.978;8.982;2023-12-29T06:32:35;4.60;;;4.00;;
71046;SDS011;58703;48.978;8.982;2023-12-29T06:35:01;4.13;;;3.23;;
71046;SDS011;58703;48.978;8.982;2023-12-29T06:37:28;5.05;;;3.30;;
71046;SDS011;58703;48.978;8.982;2023-12-29T06:39:53;4.03;;;3.07;;
71046;SDS011;58703;48.978;8.982;2023-12-29T06:42:19;3.40;;;2.97;;
71046;SDS011;58703;48.978;8.982;2023-12-29T06:44:45;3.57;;;3.10;;
71046;SDS011;58703;48.978;8.982;2023-12-29T06:47:11;4.10;;;2.72;;
71046;SDS011;58703;48.978;8.982;2023-12-29T06:49:38;3.80;;;2.75;;
71046;SDS011;58703;48.978;8.982;2023-12-29T06:52:04;4.23;;;3.10;;
71046;SDS011;58703;48.978;8.982;2023-12-29T06:54:30;3.20;;;2.78;;
71046;SDS011;58703;48.978;8.982;2023-12-29T06:56:56;3.83;;;2.38;;
71046;SDS011;58703;48.978;8.982;2023-12-29T06:59:22;2.93;;;2.53;;
71046;SDS011;58703;48.978;8.982;2023-12-29T07:01:48;4.00;;;3.60;;
71046;SDS011;58703;48.978;8.982;2023-12-29T07:04:14;4.00;;;3.22;;
71046;SDS011;58703;48.978;8.982;2023-12-29T07:06:41;4.33;;;3.37;;
71046;SDS011;58703;48.978;8.982;2023-12-29T07:09:07;6.25;;;3.85;;
71046;SDS011;58703;48.978;8.982;2023-12-29T07:11:34;7.00;;;4.05;;
71046;SDS011;58703;48.978;8.982;2023-12-29T07:14:00;6.10;;;4.47;;
71046;SDS011;58703;48.978;8.982;2023-12-29T07:16:26;5.03;;;3.73;;
71046;SDS011;58703;48.978;8.982;2023-12-29T07:18:52;6.15;;;4.38;;
71046;SDS011;58703;48.978;8.982;2023-12-29T07:21:17;7.00;;;4.30;;
71046;SDS011;58703;48.978;8.982;2023-12-29T07:23:43;5.30;;;4.22;;
71046;SDS011;58703;48.978;8.982;2023-12-29T07:26:09;4.82;;;4.03;;
71046;SDS011;58703;48.978;8.982;2023-12-29T07:28:35;5.43;;;3.90;;
71046;SDS011;58703;48.978;8.982;2023-12-29T07:31:01;5.22;;;4.10;;
71046;SDS011;58703;48.978;8.982;2023-12-29T07:33:27;6.17;;;4.10;;
71046;SDS011;58703;48.978;8.982;2023-12-29T07:35:52;5.55;;;4.05;;
71046;SDS011;58703;48.978;8.982;2023-12-29T07:38:18;4.55;;;3.70;;
71046;SDS011;58703;48.978;8.982;2023-12-29T07:40:44;4.63;;;3.33;;
71046;SDS011;58703;48.978;8.982;2023-12-29T07:43:10;4.55;;;3.60;;
71046;SDS011;58703;48.978;8.982;2023-12-29T07:45:36;6.40;;;4.55;;
71046;SDS011;58703;48.978;8.982;2023-12-29T07:48:02;4.60;;;3.80;;
71046;SDS011;58703;48.978;8.982;2023-12-29T07:50:28;4.32;;;3.25;;
71046;SDS011;58703;48.978;8.982;2023-12-29T07:52:54;5.40;;;4.47;;
71046;SDS011;58703;48.978;8.982;2023-12-29T07:55:19;4.93;;;3.60;;
71046;SDS011;58703;48.978;8.982;2023-12-29T07:57:45;8.95;;;5.93;;
71046;SDS011;58703;48.978;8.982;2023-12-29T08:00:12;12.60;;;7.75;;
71046;SDS011;58703;48.978;8.982;2023-12-29T08:02:39;16.17;;;9.15;;
71046;SDS011;58703;48.978;8.982;2023-12-29T08:05:05;20.17;;;10.27;;
71046;SDS011;58703;48.978;8.982;2023-12-29T08:07:33;18.80;;;9.37;;
71046;SDS011;58703;48.978;8.982;2023-12-29T08:10:00;18.45;;;9.63;;
71046;SDS011;58703;48.978;8.982;2023-12-29T08:12:26;11.80;;;7.50;;
71046;SDS011;58703;48.978;8.982;2023-12-29T08:14:54;15.18;;;9.25;;
71046;SDS011;58703;48.978;8.982;2023-12-29T08:17:19;13.67;;;8.80;;
71046;SDS011;58703;48.978;8.982;2023-12-29T08:19:45;7.87;;;6.00;;
71046;SDS011;58703;48.978;8.982;2023-12-29T08:22:12;10.98;;;5.38;;
71046;SDS011;58703;48.978;8.982;2023-12-29T08:24:39;12.30;;;5.73;;
71046;SDS011;58703;48.978;8.982;2023-12-29T08:27:06;9.90;;;4.60;;
71046;SDS011;58703;48.978;8.982;2023-12-29T08:29:31;8.02;;;5.22;;
71046;SDS011;58703;48.978;8.982;2023-12-29T08:31:58;9.63;;;4.43;;
71046;SDS011;58703;48.978;8.982;2023-12-29T08:34:23;7.10;;;4.32;;
71046;SDS011;58703;48.978;8.982;2023-12-29T08:36:49;8.10;;;5.10;;
71046;SDS011;58703;48.978;8.982;2023-12-29T08:39:14;6.80;;;4.87;;
71046;SDS011;58703;48.978;8.982;2023-12-29T08:41:40;3.53;;;3.20;;
71046;SDS011;58703;48.978;8.982;2023-12-29T08:44:06;5.27;;;3.77;;
71046;SDS011;58703;48.978;8.982;2023-12-29T08:46:31;4.70;;;3.05;;
71046;SDS011;58703;48.978;8.982;2023-12-29T08:48:58;5.40;;;3.20;;
71046;SDS011;58703;48.978;8.982;2023-12-29T08:51:23;4.07;;;3.22;;
71046;SDS011;58703;48.978;8.982;2023-12-29T08:53:49;5.27;;;3.40;;
71046;SDS011;58703;48.978;8.982;2023-12-29T08:56:14;3.88;;;3.40;;
71046;SDS011;58703;48.978;8.982;2023-12-29T08:58:40;3.63;;;2.93;;
71046;SDS011;58703;48.978;8.982;2023-12-29T09:01:06;2.92;;;2.63;;
71046;SDS011;58703;48.978;8.982;2023-12-29T09:03:32;3.33;;;2.80;;
71046;SDS011;58703;48.978;8.982;2023-12-29T09:05:57;3.17;;;2.73;;
71046;SDS011;58703;48.978;8.982;2023-12-29T09:08:24;4.30;;;3.33;;
71046;SDS011;58703;48.978;8.982;2023-12-29T09:10:50;3.23;;;2.87;;
71046;SDS011;58703;48.978;8.982;2023-12-29T09:13:16;4.00;;;3.43;;
71046;SDS011;58703;48.978;8.982;2023-12-29T09:15:42;6.55;;;4.45;;
71046;SDS011;58703;48.978;8.982;2023-12-29T09:18:08;6.20;;;3.93;;
71046;SDS011;58703;48.978;8.982;2023-12-29T09:20:33;5.32;;;4.05;;
71046;SDS011;58703;48.978;8.982;2023-12-29T09:22:59;11.97;;;6.30;;
71046;SDS011;58703;48.978;8.982;2023-12-29T09:25:25;10.35;;;6.40;;
71046;SDS011;58703;48.978;8.982;2023-12-29T09:27:51;10.05;;;5.32;;
71046;SDS011;58703;48.978;8.982;2023-12-29T09:30:17;9.88;;;4.38;;
71046;SDS011;58703;48.978;8.982;2023-12-29T09:32:43;4.23;;;2.80;;
71046;SDS011;58703;48.978;8.982;2023-12-29T09:35:09;5.75;;;3.63;;
71046;SDS011;58703;48.978;8.982;2023-12-29T09:37:35;3.80;;;2.77;;
71046;SDS011;58703;48.978;8.982;2023-12-29T09:40:00;3.92;;;3.25;;
71046;SDS011;58703;48.978;8.982;2023-12-29T09:42:26;5.10;;;3.30;;
71046;SDS011;58703;48.978;8.982;2023-12-29T09:44:54;4.13;;;2.85;;
71046;SDS011;58703;48.978;8.982;2023-12-29T09:47:20;4.27;;;3.07;;
71046;SDS011;58703;48.978;8.982;2023-12-29T09:49:54;6.15;;;3.75;;
71046;SDS011;58703;48.978;8.982;2023-12-29T09:52:20;4.75;;;3.03;;
71046;SDS011;58703;48.978;8.982;2023-12-29T09:54:48;2.53;;;2.33;;
71046;SDS011;58703;48.978;8.982;2023-12-29T09:57:16;2.43;;;2.07;;
71046;SDS011;58703;48.978;8.982;2023-12-29T09:59:43;3.63;;;2.95;;
71046;SDS011;58703;48.978;8.982;2023-12-29T10:02:14;4.10;;;2.95;;
71046;SDS011;58703;48.978;8.982;2023-12-29T10:04:41;6.00;;;2.97;;
71046;SDS011;58703;48.978;8.982;2023-12-29T10:07:07;3.30;;;3.00;;
71046;SDS011;58703;48.978;8.982;2023-12-29T10:09:33;2.90;;;2.50;;
71046;SDS011;58703;48.978;8.982;2023-12-29T10:12:04;3.47;;;2.80;;
71046;SDS011;58703;48.978;8.982;2023-12-29T10:14:36;2.70;;;2.40;;
71046;SDS011;58703;48.978;8.982;2023-12-29T10:20:24;4.10;;;1.70;;
71046;SDS011;58703;48.978;8.982;2023-12-29T10:23:03;2.85;;;1.73;;
71046;SDS011;58703;48.978;8.982;2023-12-29T10:25:34;2.25;;;1.67;;
71046;SDS011;58703;48.978;8.982;2023-12-29T10:28:01;1.70;;;1.00;;
71046;SDS011;58703;48.978;8.982;2023-12-29T10:30:28;1.42;;;1.08;;
71046;SDS011;58703;48.978;8.982;2023-12-29T10:32:54;1.80;;;1.17;;
71046;SDS011;58703;48.978;8.982;2023-12-29T10:35:19;1.48;;;0.80;;
71046;SDS011;58703;48.978;8.982;2023-12-29T10:37:45;0.70;;;0.60;;
71046;SDS011;58703;48.978;8.982;2023-12-29T10:40:17;1.23;;;0.52;;
71046;SDS011;58703;48.978;8.982;2023-12-29T10:42:51;0.30;;;0.30;;
71046;SDS011;58703;48.978;8.982;2023-12-29T10:45:17;0.75;;;0.65;;
71046;SDS011;58703;48.978;8.982;2023-12-29T10:47:43;0.25;;;0.22;;
71046;SDS011;58703;48.978;8.982;2023-12-29T10:50:09;0.43;;;0.30;;
71046;SDS011;58703;48.978;8.982;2023-12-29T10:52:35;1.70;;;1.03;;
71046;SDS011;58703;48.978;8.982;2023-12-29T10:55:05;0.63;;;0.22;;
71046;SDS011;58703;48.978;8.982;2023-12-29T10:57:32;0.43;;;0.40;;
71046;SDS011;58703;48.978;8.982;2023-12-29T10:59:58;0.28;;;0.25;;
71046;SDS011;58703;48.978;8.982;2023-12-29T11:02:25;0.52;;;0.20;;
71046;SDS011;58703;48.978;8.982;2023-12-29T11:05:00;0.77;;;0.30;;
71046;SDS011;58703;48.978;8.982;2023-12-29T11:07:31;0.40;;;0.30;;
71046;SDS011;58703;48.978;8.982;2023-12-29T11:10:01;0.20;;;0.20;;
71046;SDS011;58703;48.978;8.982;2023-12-29T11:12:34;1.13;;;0.60;;
71046;SDS011;58703;48.978;8.982;2023-12-29T11:15:05;0.25;;;0.25;;
71046;SDS011;58703;48.978;8.982;2023-12-29T11:17:33;1.33;;;0.30;;
71046;SDS011;58703;48.978;8.982;2023-12-29T11:20:00;0.30;;;0.30;;
71046;SDS011;58703;48.978;8.982;2023-12-29T11:22:30;0.57;;;0.45;;
71046;SDS011;58703;48.978;8.982;2023-12-29T11:24:56;0.95;;;0.35;;
71046;SDS011;58703;48.978;8.982;2023-12-29T11:27:30;1.15;;;0.30;;
71046;SDS011;58703;48.978;8.982;2023-12-29T11:29:57;0.47;;;0.40;;
71046;SDS011;58703;48.978;8.982;2023-12-29T11:35:18;0.30;;;0.30;;
71046;SDS011;58703;48.978;8.982;2023-12-29T11:40:55;0.57;;;0.25;;
71046;SDS011;58703;48.978;8.982;2023-12-29T11:43:27;0.35;;;0.35;;
71046;SDS011;58703;48.978;8.982;2023-12-29T11:45:53;0.30;;;0.30;;
71046;SDS011;58703;48.978;8.982;2023-12-29T11:51:29;0.35;;;0.30;;
71046;SDS011;58703;48.978;8.982;2023-12-29T11:53:55;1.17;;;0.20;;
71046;SDS011;58703;48.978;8.982;2023-12-29T11:56:21;0.40;;;0.40;;
71046;SDS011;58703;48.978;8.982;2023-12-29T11:58:47;2.97;;;0.50;;
71046;SDS011;58703;48.978;8.982;2023-12-29T12:01:12;1.33;;;0.50;;
71046;SDS011;58703;48.978;8.982;2023-12-29T12:03:38;1.40;;;0.25;;
71046;SDS011;58703;48.978;8.982;2023-12-29T12:06:04;0.50;;;0.50;;
71046;SDS011;58703;48.978;8.982;2023-12-29T12:10:57;0.50;;;0.50;;
71046;SDS011;58703;48.978;8.982;2023-12-29T12:13:44;0.63;;;0.57;;
71046;SDS011;58703;48.978;8.982;2023-12-29T12:16:56;0.50;;;0.35;;
71046;SDS011;58703;48.978;8.982;2023-12-29T12:19:15;0.50;;;0.50;;
71046;SDS011;58703;48.978;8.982;2023-12-29T12:21:46;1.05;;;0.50;;
71046;SDS011;58703;48.978;8.982;2023-12-29T12:24:16;0.30;;;0.30;;
71046;SDS011;58703;48.978;8.982;2023-12-29T12:26:45;1.13;;;0.60;;
71046;SDS011;58703;48.978;8.982;2023-12-29T12:29:12;1.08;;;0.45;;
71046;SDS011;58703;48.978;8.982;2023-12-29T12:31:57;1.63;;;0.30;;
71046;SDS011;58703;48.978;8.982;2023-12-29T12:34:24;0.50;;;0.50;;
71046;SDS011;58703;48.978;8.982;2023-12-29T12:36:50;1.27;;;0.35;;
71046;SDS011;58703;48.978;8.982;2023-12-29T12:39:17;1.90;;;0.63;;
71046;SDS011;58703;48.978;8.982;2023-12-29T12:41:43;1.92;;;0.30;;
71046;SDS011;58703;48.978;8.982;2023-12-29T12:46:35;0.30;;;0.30;;
71046;SDS011;58703;48.978;8.982;2023-12-29T12:49:04;0.95;;;0.45;;
71046;SDS011;58703;48.978;8.982;2023-12-29T12:51:30;0.52;;;0.40;;
71046;SDS011;58703;48.978;8.982;2023-12-29T12:53:59;0.63;;;0.40;;
71046;SDS011;58703;48.978;8.982;2023-12-29T12:56:25;0.50;;;0.50;;
71046;SDS011;58703;48.978;8.982;2023-12-29T12:58:55;0.60;;;0.57;;
71046;SDS011;58703;48.978;8.982;2023-12-29T13:01:21;0.40;;;0.40;;
71046;SDS011;58703;48.978;8.982;2023-12-29T13:03:48;0.68;;;0.52;;
71046;SDS011;58703;48.978;8.982;2023-12-29T13:06:14;0.30;;;0.30;;
71046;SDS011;58703;48.978;8.982;2023-12-29T13:08:44;1.35;;;0.70;;
71046;SDS011;58703;48.978;8.982;2023-12-29T13:11:13;0.50;;;0.50;;
71046;SDS011;58703;48.978;8.982;2023-12-29T13:13:39;1.07;;;0.50;;
71046;SDS011;58703;48.978;8.982;2023-12-29T13:16:07;0.88;;;0.70;;
71046;SDS011;58703;48.978;8.982;2023-12-29T13:18:33;0.70;;;0.45;;
71046;SDS011;58703;48.978;8.982;2023-12-29T13:21:01;0.80;;;0.57;;
71046;SDS011;58703;48.978;8.982;2023-12-29T13:23:27;0.50;;;0.50;;
71046;SDS011;58703;48.978;8.982;2023-12-29T13:25:54;0.63;;;0.60;;
71046;SDS011;58703;48.978;8.982;2023-12-29T13:28:22;1.88;;;0.45;;
71046;SDS011;58703;48.978;8.982;2023-12-29T13:30:47;1.83;;;0.50;;
71046;SDS011;58703;48.978;8.982;2023-12-29T13:33:16;1.25;;;0.60;;
71046;SDS011;58703;48.978;8.982;2023-12-29T13:35:51;0.73;;;0.73;;
71046;SDS011;58703;48.978;8.982;2023-12-29T13:38:22;0.65;;;0.65;;
71046;SDS011;58703;48.978;8.982;2023-12-29T13:40:59;1.47;;;0.60;;
71046;SDS011;58703;48.978;8.982;2023-12-29T13:43:30;0.80;;;0.60;;
71046;SDS011;58703;48.978;8.982;2023-12-29T13:45:58;0.30;;;0.20;;
71046;SDS011;58703;48.978;8.982;2023-12-29T13:48:25;0.82;;;0.77;;
71046;SDS011;58703;48.978;8.982;2023-12-29T13:50:52;1.23;;;0.60;;
71046;SDS011;58703;48.978;8.982;2023-12-29T13:53:18;0.43;;;0.43;;
71046;SDS011;58703;48.978;8.982;2023-12-29T13:55:44;0.50;;;0.50;;
71046;SDS011;58703;48.978;8.982;2023-12-29T13:58:11;0.60;;;0.57;;
71046;SDS011;58703;48.978;8.982;2023-12-29T14:00:37;1.23;;;0.63;;
71046;SDS011;58703;48.978;8.982;2023-12-29T14:03:06;0.70;;;0.70;;
71046;SDS011;58703;48.978;8.982;2023-12-29T14:05:36;1.63;;;0.90;;
71046;SDS011;58703;48.978;8.982;2023-12-29T14:10:44;0.77;;;0.77;;
71046;SDS011;58703;48.978;8.982;2023-12-29T14:13:12;1.00;;;0.90;;
71046;SDS011;58703;48.978;8.982;2023-12-29T14:15:39;0.68;;;0.50;;
71046;SDS011;58703;48.978;8.982;2023-12-29T14:18:50;1.33;;;0.57;;
71046;SDS011;58703;48.978;8.982;2023-12-29T14:21:54;0.70;;;0.60;;
71046;SDS011;58703;48.978;8.982;2023-12-29T14:26:31;0.95;;;0.85;;
71046;SDS011;58703;48.978;8.982;2023-12-29T14:29:03;1.75;;;0.70;;
71046;SDS011;58703;48.978;8.982;2023-12-29T14:31:40;0.90;;;0.67;;
71046;SDS011;58703;48.978;8.982;2023-12-29T14:34:07;1.40;;;0.55;;
71046;SDS011;58703;48.978;8.982;2023-12-29T14:36:34;1.80;;;0.98;;
71046;SDS011;58703;48.978;8.982;2023-12-29T14:39:00;1.25;;;1.08;;
71046;SDS011;58703;48.978;8.982;2023-12-29T14:41:26;1.23;;;0.90;;
71046;SDS011;58703;48.978;8.982;2023-12-29T14:43:52;1.03;;;0.77;;
71046;SDS011;58703;48.978;8.982;2023-12-29T14:46:18;2.63;;;0.88;;
71046;SDS011;58703;48.978;8.982;2023-12-29T14:48:44;1.15;;;0.57;;
71046;SDS011;58703;48.978;8.982;2023-12-29T14:51:10;1.30;;;1.13;;
71046;SDS011;58703;48.978;8.982;2023-12-29T14:53:36;0.80;;;0.50;;
71046;SDS011;58703;48.978;8.982;2023-12-29T14:56:02;1.50;;;1.35;;
71046;SDS011;58703;48.978;8.982;2023-12-29T14:58:28;1.15;;;0.88;;
71046;SDS011;58703;48.978;8.982;2023-12-29T15:00:55;1.10;;;1.00;;
71046;SDS011;58703;48.978;8.982;2023-12-29T15:03:21;1.38;;;0.68;;
71046;SDS011;58703;48.978;8.982;2023-12-29T15:05:48;0.60;;;0.60;;
71046;SDS011;58703;48.978;8.982;2023-12-29T15:08:13;0.65;;;0.60;;
71046;SDS011;58703;48.978;8.982;2023-12-29T15:10:39;1.67;;;0.50;;
71046;SDS011;58703;48.978;8.982;2023-12-29T15:13:04;1.48;;;0.50;;